Time;durP1;ratioP1;P1;durP2;ratioP2;P2;SDS_P1;SDS_P2;PMS_P1;PMS_P2;Temp;Humidity;BMP_temperature;BMP_pressure;BME280_temperature;BME280_humidity;BME280_pressure;Samples;Min_cycle;Max_cycle;Signal;HPM_P1;HPM_P2
2022/01/14 00:01:04;;;;;;;3.80;3.60;;;18.40;39.30;;;;;;5051105;28;20448;-77
2022/01/14 00:03:31;;;;;;;3.57;3.37;;;18.40;39.30;;;;;;5022078;28;20454;-77
2022/01/14 00:05:56;;;;;;;3.50;3.30;;;18.40;39.30;;;;;;5021120;28;20434;-77
2022/01/14 00:08:22;;;;;;;4.00;3.80;;;18.40;39.30;;;;;;5017867;28;20929;-77
2022/01/14 00:10:51;;;;;;;3.30;3.10;;;18.40;39.30;;;;;;5023480;28;20259;-76
2022/01/14 00:13:44;;;;;;;4.17;3.97;;;18.40;39.30;;;;;;5024495;28;20243;-74
2022/01/14 00:16:10;;;;;;;3.83;3.53;;;18.40;39.30;;;;;;5018993;28;20451;-77
2022/01/14 00:18:36;;;;;;;3.43;3.23;;;18.40;39.30;;;;;;5024746;28;20889;-77
2022/01/14 00:21:02;;;;;;;3.20;3.00;;;18.40;39.40;;;;;;5020621;28;20231;-77
2022/01/14 00:23:32;;;;;;;3.97;3.63;;;18.40;39.30;;;;;;5025256;28;20285;-76
2022/01/14 00:34:12;;;;;;;4.10;3.87;;;18.40;39.20;;;;;;5025037;28;20455;-76
2022/01/14 00:36:39;;;;;;;3.53;3.33;;;18.40;39.30;;;;;;5024673;28;20437;-76
2022/01/14 00:39:07;;;;;;;3.43;3.23;;;18.40;39.30;;;;;;5024179;28;20458;-74
2022/01/14 00:41:36;;;;;;;4.13;3.83;;;18.40;39.30;;;;;;5021750;28;20536;-76
2022/01/14 00:44:07;;;;;;;3.57;3.37;;;18.40;39.30;;;;;;5021919;28;20462;-76
2022/01/14 00:46:33;;;;;;;3.73;3.43;;;18.40;39.30;;;;;;5019693;28;20519;-75
2022/01/14 00:48:58;;;;;;;3.87;3.67;;;18.40;39.30;;;;;;5019954;28;21033;-75
2022/01/14 00:51:24;;;;;;;4.00;3.80;;;18.40;39.30;;;;;;5022526;28;20219;-74
2022/01/14 00:53:50;;;;;;;3.63;3.43;;;18.40;39.30;;;;;;5022001;28;20260;-75
2022/01/14 01:01:35;;;;;;;3.50;3.30;;;18.40;39.30;;;;;;5019955;28;20437;-75
2022/01/14 01:04:01;;;;;;;3.77;3.57;;;18.40;39.30;;;;;;5022125;28;20449;-74
2022/01/14 01:06:27;;;;;;;3.40;3.20;;;18.40;39.30;;;;;;5018997;28;20228;-74
2022/01/14 01:08:55;;;;;;;3.43;3.23;;;18.40;39.30;;;;;;5024229;28;20673;-74
2022/01/14 01:11:26;;;;;;;3.67;3.47;;;18.40;39.30;;;;;;5020361;28;20680;-74
2022/01/14 01:14:01;;;;;;;4.17;3.97;;;18.40;39.20;;;;;;5024413;28;20456;-74
2022/01/14 01:16:27;;;;;;;3.30;3.10;;;18.40;39.30;;;;;;5020987;28;21693;-74
2022/01/14 01:18:52;;;;;;;3.20;3.00;;;18.40;39.30;;;;;;5019020;28;21018;-74
2022/01/14 01:21:18;;;;;;;3.40;3.20;;;18.40;39.30;;;;;;5018399;28;20218;-74
2022/01/14 01:23:44;;;;;;;3.43;3.23;;;18.40;39.30;;;;;;5019098;28;20256;-74
2022/01/14 01:26:15;;;;;;;2.80;2.70;;;18.40;39.30;;;;;;5015633;28;20656;-75
2022/01/14 01:29:17;;;;;;;3.23;3.03;;;18.40;39.30;;;;;;5019463;28;20241;-73
2022/01/14 01:31:40;;;;;;;3.23;3.03;;;18.40;39.30;;;;;;5021108;28;20415;-74
2022/01/14 01:34:23;;;;;;;3.30;3.10;;;18.40;39.30;;;;;;5017972;28;20946;-74
2022/01/14 01:36:54;;;;;;;3.53;3.33;;;18.40;39.30;;;;;;5016998;28;20441;-74
2022/01/14 01:39:27;;;;;;;3.00;2.80;;;18.40;39.30;;;;;;5023551;28;20460;-73
2022/01/14 01:41:56;;;;;;;4.00;3.70;;;18.40;39.30;;;;;;5018493;28;20427;-73
2022/01/14 01:44:23;;;;;;;3.30;3.10;;;18.40;39.30;;;;;;5020670;28;20519;-72
2022/01/14 01:46:50;;;;;;;2.97;2.77;;;18.40;39.30;;;;;;5019717;28;20451;-73
2022/01/14 01:49:19;;;;;;;3.13;2.93;;;18.40;39.20;;;;;;5021715;28;20426;-73
2022/01/14 01:51:47;;;;;;;3.13;2.93;;;18.40;39.20;;;;;;5021185;28;20492;-73
2022/01/14 01:54:13;;;;;;;3.70;3.50;;;18.40;39.20;;;;;;5020338;28;20477;-71
2022/01/14 01:56:39;;;;;;;3.17;2.97;;;18.40;39.30;;;;;;5019795;28;20427;-74
2022/01/14 01:59:05;;;;;;;3.10;2.90;;;18.40;39.20;;;;;;5022999;28;20523;-73
2022/01/14 02:01:32;;;;;;;3.37;3.17;;;18.40;39.20;;;;;;5023889;28;20219;-73
2022/01/14 02:03:57;;;;;;;3.10;2.90;;;18.40;39.20;;;;;;5019008;28;20420;-73
2022/01/14 02:06:24;;;;;;;3.13;2.93;;;18.40;39.30;;;;;;5021529;28;20444;-72
2022/01/14 02:08:50;;;;;;;3.10;2.90;;;18.40;39.20;;;;;;5018586;28;20226;-78
2022/01/14 02:11:17;;;;;;;3.30;3.10;;;18.40;39.20;;;;;;5048896;28;20452;-74
2022/01/14 02:13:43;;;;;;;3.73;3.43;;;18.40;39.20;;;;;;5019718;28;20472;-76
2022/01/14 02:18:40;;;;;;;3.40;2.97;;;18.40;39.20;;;;;;5019010;28;20507;-75
2022/01/14 02:24:09;;;;;;;3.17;2.97;;;18.40;39.20;;;;;;5020699;28;21540;-75
2022/01/14 02:26:47;;;;;;;3.50;3.30;;;18.40;39.20;;;;;;5019870;28;20508;-75
2022/01/14 02:29:13;;;;;;;3.30;3.10;;;18.40;39.20;;;;;;5019179;28;20519;-74
2022/01/14 02:31:38;;;;;;;3.43;3.23;;;18.40;39.20;;;;;;5020360;28;20449;-74
2022/01/14 02:34:04;;;;;;;3.83;3.63;;;18.40;39.30;;;;;;5018696;28;20216;-74
2022/01/14 02:36:32;;;;;;;2.80;2.60;;;18.40;39.20;;;;;;5019930;28;20298;-74
2022/01/14 02:38:59;;;;;;;3.40;3.20;;;18.40;39.30;;;;;;5017986;28;20226;-73
2022/01/14 02:41:25;;;;;;;2.70;2.60;;;18.40;39.20;;;;;;5053008;28;20434;-74
2022/01/14 02:43:50;;;;;;;3.17;2.97;;;18.40;39.20;;;;;;5030651;28;20426;-73
2022/01/14 02:46:16;;;;;;;2.57;2.47;;;18.40;39.20;;;;;;5024692;28;20289;-70
2022/01/14 02:48:42;;;;;;;2.93;2.73;;;18.40;39.20;;;;;;5026627;28;20632;-73
2022/01/14 02:51:13;;;;;;;2.40;2.30;;;18.40;39.30;;;;;;5023393;28;20280;-73
2022/01/14 02:56:20;;;;;;;3.07;2.87;;;18.40;39.20;;;;;;5023253;28;20989;-72
2022/01/14 02:58:47;;;;;;;3.07;2.87;;;18.40;39.20;;;;;;5022761;28;20505;-71
2022/01/14 03:01:16;;;;;;;3.50;3.20;;;18.40;39.20;;;;;;5026286;28;20931;-72
2022/01/14 03:03:45;;;;;;;3.33;3.13;;;18.40;39.20;;;;;;5023604;28;20923;-73
2022/01/14 03:06:11;;;;;;;2.93;2.73;;;18.40;39.20;;;;;;5026492;28;20528;-74
2022/01/14 03:08:37;;;;;;;2.80;2.60;;;18.40;39.30;;;;;;5020604;28;20418;-74
2022/01/14 03:11:19;;;;;;;3.07;2.93;;;18.40;39.20;;;;;;5052439;28;20591;-72
2022/01/14 03:13:46;;;;;;;3.10;2.90;;;18.40;39.20;;;;;;5020274;28;20231;-73
2022/01/14 03:16:12;;;;;;;2.90;2.70;;;18.40;39.20;;;;;;5024502;28;20434;-74
2022/01/14 03:18:46;;;;;;;2.87;2.67;;;18.40;39.20;;;;;;5020951;28;20424;-72
2022/01/14 03:21:15;;;;;;;3.07;2.87;;;18.40;39.20;;;;;;5022747;28;20214;-73
2022/01/14 03:23:47;;;;;;;3.20;2.90;;;18.40;39.20;;;;;;5021057;28;20435;-73
2022/01/14 03:26:15;;;;;;;3.20;3.00;;;18.40;39.20;;;;;;5055889;28;20769;-71
2022/01/14 03:28:43;;;;;;;3.10;2.90;;;18.40;39.20;;;;;;5021759;28;20516;-72
2022/01/14 03:31:09;;;;;;;3.17;2.97;;;18.40;39.20;;;;;;5022686;28;20419;-72
2022/01/14 03:33:36;;;;;;;3.50;3.30;;;18.40;39.20;;;;;;5022661;28;20460;-72
2022/01/14 03:36:03;;;;;;;3.03;2.83;;;18.40;39.20;;;;;;5022612;28;20465;-73
2022/01/14 03:38:28;;;;;;;2.53;2.43;;;18.40;39.20;;;;;;5019115;28;20428;-72
2022/01/14 03:40:54;;;;;;;2.97;2.77;;;18.40;39.20;;;;;;5025376;28;20900;-73
2022/01/14 03:43:20;;;;;;;2.60;2.47;;;18.40;39.20;;;;;;5020183;28;20232;-73
2022/01/14 03:45:49;;;;;;;3.07;2.87;;;18.40;39.20;;;;;;5020260;28;20219;-72
2022/01/14 03:48:14;;;;;;;2.97;2.70;;;18.40;39.20;;;;;;5022039;28;20449;-72
2022/01/14 03:50:41;;;;;;;3.27;3.07;;;18.40;39.20;;;;;;5022146;28;21096;-72
2022/01/14 03:53:07;;;;;;;2.77;2.67;;;18.40;39.20;;;;;;5020249;28;20764;-72
2022/01/14 03:55:33;;;;;;;3.33;3.13;;;18.30;39.10;;;;;;5021174;28;20520;-72
2022/01/14 03:57:58;;;;;;;3.30;3.10;;;18.40;39.20;;;;;;5053994;28;20251;-71
2022/01/14 04:00:24;;;;;;;3.67;3.37;;;18.30;39.10;;;;;;5022841;28;20247;-71
2022/01/14 04:02:51;;;;;;;2.73;2.63;;;18.40;40.00;;;;;;5021234;28;20224;-71
2022/01/14 04:05:17;;;;;;;3.50;3.30;;;18.40;39.20;;;;;;5022664;28;20427;-71
2022/01/14 04:07:43;;;;;;;2.63;2.53;;;18.40;39.20;;;;;;5021651;28;20433;-71
2022/01/14 04:10:11;;;;;;;3.07;2.93;;;18.40;39.20;;;;;;5021374;28;20230;-71
2022/01/14 04:12:57;;;;;;;3.37;3.10;;;18.40;39.20;;;;;;5022121;28;20318;-71
2022/01/14 04:15:39;;;;;;;3.40;3.20;;;18.40;39.20;;;;;;5019912;28;20547;-72
2022/01/14 04:18:12;;;;;;;3.00;2.80;;;18.40;39.20;;;;;;5020977;28;20423;-71
2022/01/14 04:20:38;;;;;;;2.80;2.60;;;18.40;39.20;;;;;;5023654;28;20441;-71
2022/01/14 04:23:05;;;;;;;3.30;3.10;;;18.40;39.20;;;;;;5021439;28;20540;-70
2022/01/14 04:25:35;;;;;;;3.37;3.17;;;18.40;39.20;;;;;;5020071;28;20996;-70
2022/01/14 04:28:02;;;;;;;2.63;2.53;;;18.40;39.20;;;;;;5022147;28;20563;-71
2022/01/14 04:30:28;;;;;;;3.67;3.47;;;18.40;39.20;;;;;;5017486;28;20452;-71
2022/01/14 04:32:54;;;;;;;3.10;2.90;;;18.40;39.20;;;;;;5052793;28;20468;-70
2022/01/14 04:35:19;;;;;;;3.23;3.03;;;18.40;39.20;;;;;;5019095;28;20627;-70
2022/01/14 04:37:45;;;;;;;3.37;3.17;;;18.40;39.20;;;;;;5026749;28;20608;-71
2022/01/14 04:40:13;;;;;;;3.53;3.33;;;18.40;39.20;;;;;;5022472;28;20238;-69
2022/01/14 04:42:41;;;;;;;2.90;2.70;;;18.40;39.10;;;;;;5022054;28;20215;-70
2022/01/14 04:45:12;;;;;;;3.33;3.13;;;18.30;39.10;;;;;;5022742;28;20434;-70
2022/01/14 04:47:44;;;;;;;3.83;3.30;;;18.40;39.10;;;;;;5017020;28;20431;-70
2022/01/14 04:50:16;;;;;;;3.33;3.13;;;18.40;39.10;;;;;;5017645;28;20452;-70
2022/01/14 04:52:44;;;;;;;2.93;2.83;;;18.40;39.20;;;;;;5022781;28;20428;-69
2022/01/14 04:55:11;;;;;;;3.33;3.13;;;18.40;39.20;;;;;;5019264;28;20423;-71
2022/01/14 04:57:38;;;;;;;3.37;3.17;;;18.40;39.20;;;;;;5022091;28;20481;-70
2022/01/14 05:00:06;;;;;;;2.97;2.77;;;18.30;39.00;;;;;;5022340;28;20449;-70
2022/01/14 05:02:32;;;;;;;3.30;3.10;;;18.40;39.10;;;;;;5019207;28;20420;-71
2022/01/14 05:04:59;;;;;;;3.93;3.73;;;18.40;39.10;;;;;;5018942;28;20496;-71
2022/01/14 05:07:26;;;;;;;3.40;3.10;;;18.30;39.00;;;;;;5017126;28;20234;-73
2022/01/14 05:12:32;;;;;;;3.33;3.13;;;18.40;39.10;;;;;;5016649;28;20432;-85
2022/01/14 05:14:58;;;;;;;3.93;3.73;;;18.40;39.10;;;;;;5022529;28;20430;-78
2022/01/14 05:17:23;;;;;;;3.40;3.20;;;18.40;39.10;;;;;;5021767;28;20412;-86
2022/01/14 05:19:49;;;;;;;3.00;2.80;;;18.40;39.10;;;;;;5019598;28;20227;-79
2022/01/14 05:22:15;;;;;;;3.13;2.93;;;18.40;39.10;;;;;;5021927;28;20712;-77
2022/01/14 05:24:41;;;;;;;3.80;3.60;;;18.40;39.10;;;;;;5019018;28;20222;-79
2022/01/14 05:27:07;;;;;;;3.40;3.20;;;18.40;39.00;;;;;;5020118;28;20419;-78
2022/01/14 05:29:32;;;;;;;3.07;2.87;;;18.40;39.00;;;;;;5022652;28;20231;-81
2022/01/14 05:32:06;;;;;;;3.50;3.20;;;18.40;39.00;;;;;;5019909;28;20220;-75
2022/01/14 05:34:33;;;;;;;3.80;3.60;;;18.40;39.00;;;;;;5018151;28;20314;-80
2022/01/14 05:37:00;;;;;;;3.70;3.40;;;18.40;39.00;;;;;;5017221;28;21146;-84
2022/01/14 05:39:26;;;;;;;3.60;3.40;;;18.40;39.00;;;;;;5052687;28;20455;-90
2022/01/14 05:41:53;;;;;;;3.23;3.03;;;18.40;39.00;;;;;;5018353;28;20464;-89
2022/01/14 05:44:19;;;;;;;3.57;3.37;;;18.40;39.00;;;;;;5019366;28;20449;-85
2022/01/14 05:46:45;;;;;;;3.60;3.40;;;18.40;39.00;;;;;;5022147;28;20525;-85
2022/01/14 05:49:11;;;;;;;2.93;2.73;;;18.40;38.40;;;;;;5019873;28;20415;-86
2022/01/14 05:51:37;;;;;;;3.27;3.07;;;18.40;39.00;;;;;;5022292;28;20419;-82
2022/01/14 05:54:03;;;;;;;4.03;3.70;;;18.40;39.00;;;;;;5020894;28;20231;-80
2022/01/14 05:56:28;;;;;;;3.47;3.27;;;18.40;39.00;;;;;;5022455;28;20227;-82
2022/01/14 05:58:54;;;;;;;3.73;3.53;;;18.40;39.00;;;;;;5018942;28;20451;-82
2022/01/14 06:01:20;;;;;;;3.27;3.07;;;18.40;38.90;;;;;;5022803;28;20230;-81
2022/01/14 06:03:46;;;;;;;3.40;3.20;;;18.40;39.00;;;;;;5018627;28;20254;-69
2022/01/14 06:06:12;;;;;;;3.47;3.17;;;18.40;38.90;;;;;;5018717;28;20419;-75
2022/01/14 06:08:40;;;;;;;4.00;3.70;;;18.50;39.10;;;;;;5020634;28;20676;-70
2022/01/14 06:11:06;;;;;;;2.60;2.50;;;18.40;38.90;;;;;;5018258;28;20319;-68
2022/01/14 06:13:32;;;;;;;3.00;2.90;;;18.40;38.90;;;;;;5017825;28;20563;-75
2022/01/14 06:15:58;;;;;;;3.87;3.67;;;18.40;39.00;;;;;;5013305;28;20215;-72
2022/01/14 06:18:23;;;;;;;3.70;3.50;;;18.50;39.00;;;;;;5016458;28;20484;-76
2022/01/14 06:20:49;;;;;;;3.20;3.00;;;18.40;38.90;;;;;;5021446;28;20305;-94
2022/01/14 06:23:15;;;;;;;3.00;2.83;;;18.50;39.00;;;;;;5022972;28;20310;-89
2022/01/14 06:25:41;;;;;;;3.10;2.97;;;18.50;39.00;;;;;;5018995;28;20227;-85
2022/01/14 06:28:07;;;;;;;3.30;3.10;;;18.50;39.00;;;;;;5016569;28;20243;-88
2022/01/14 06:30:32;;;;;;;3.67;3.37;;;18.50;39.00;;;;;;5020257;28;20942;-86
2022/01/14 06:32:58;;;;;;;3.20;2.90;;;18.50;38.90;;;;;;5018591;28;20430;-85
2022/01/14 06:35:24;;;;;;;4.03;3.80;;;18.50;38.90;;;;;;5021063;28;20225;-82
2022/01/14 06:37:50;;;;;;;3.40;3.20;;;18.50;38.90;;;;;;5017186;28;20220;-77
2022/01/14 06:40:16;;;;;;;3.77;3.57;;;18.50;39.00;;;;;;5021030;28;20532;-76
2022/01/14 06:42:42;;;;;;;3.50;2.93;;;18.50;38.90;;;;;;5018133;28;20457;-86
2022/01/14 06:45:09;;;;;;;3.43;3.23;;;18.50;38.80;;;;;;5019412;28;20488;-84
2022/01/14 06:47:35;;;;;;;3.37;3.17;;;18.50;38.80;;;;;;5019035;28;20298;-81
2022/01/14 06:50:01;;;;;;;3.57;3.37;;;18.50;38.80;;;;;;5017605;28;20927;-81
2022/01/14 06:52:27;;;;;;;3.00;2.80;;;18.50;38.80;;;;;;5020081;28;20302;-79
2022/01/14 06:54:52;;;;;;;3.07;2.87;;;18.50;38.80;;;;;;5019491;28;20427;-82
2022/01/14 06:57:19;;;;;;;3.80;3.60;;;18.50;38.80;;;;;;5020419;28;20806;-81
2022/01/14 06:59:44;;;;;;;2.93;2.73;;;18.50;38.80;;;;;;5022474;28;20298;-79
2022/01/14 07:02:10;;;;;;;3.70;3.50;;;18.50;38.80;;;;;;5020788;28;20522;-80
2022/01/14 07:04:36;;;;;;;3.43;3.23;;;18.50;38.80;;;;;;5017420;28;20219;-80
2022/01/14 07:07:03;;;;;;;3.77;3.57;;;18.50;38.80;;;;;;5018717;28;20470;-78
2022/01/14 07:09:30;;;;;;;3.47;3.27;;;18.50;38.80;;;;;;5018447;28;20439;-80
2022/01/14 07:11:58;;;;;;;3.67;3.47;;;18.50;38.80;;;;;;5021464;28;21008;-79
2022/01/14 07:14:25;;;;;;;3.90;3.60;;;18.50;38.80;;;;;;5017070;28;20515;-79
2022/01/14 07:16:51;;;;;;;3.10;2.90;;;18.50;38.80;;;;;;5018768;28;20996;-79
2022/01/14 07:19:20;;;;;;;3.53;3.33;;;18.50;38.70;;;;;;5017770;28;20533;-75
2022/01/14 07:21:45;;;;;;;3.37;3.17;;;18.50;38.70;;;;;;5018994;28;20432;-78
2022/01/14 07:24:13;;;;;;;3.47;3.27;;;18.50;38.70;;;;;;5021052;28;20464;-72
2022/01/14 07:26:39;;;;;;;3.23;3.03;;;18.50;38.70;;;;;;5023671;28;20219;-79
2022/01/14 07:29:05;;;;;;;3.33;3.13;;;18.50;38.80;;;;;;5022060;28;20484;-84
2022/01/14 07:31:31;;;;;;;3.60;3.40;;;18.50;38.70;;;;;;5022127;28;20456;-80
2022/01/14 07:33:57;;;;;;;2.97;2.87;;;18.50;38.80;;;;;;5023374;28;20299;-79
2022/01/14 07:36:23;;;;;;;3.37;3.17;;;18.50;38.70;;;;;;5051450;28;20335;-80
2022/01/14 07:38:49;;;;;;;3.60;3.40;;;18.60;38.80;;;;;;5021379;28;20231;-86
2022/01/14 07:41:15;;;;;;;3.30;3.00;;;18.60;38.80;;;;;;5021211;28;20302;-74
2022/01/14 07:43:45;;;;;;;3.63;3.33;;;18.50;38.70;;;;;;5020959;28;20265;-75
2022/01/14 07:46:11;;;;;;;3.30;3.10;;;18.60;38.80;;;;;;5021145;28;20420;-78
2022/01/14 07:48:37;;;;;;;3.23;3.03;;;18.60;38.80;;;;;;5027985;28;20848;-76
2022/01/14 07:51:02;;;;;;;3.00;2.80;;;18.60;38.80;;;;;;5020350;28;20742;-77
2022/01/14 07:53:28;;;;;;;3.63;3.37;;;18.60;38.80;;;;;;5018682;28;20240;-76
2022/01/14 07:55:54;;;;;;;4.00;3.70;;;18.60;38.70;;;;;;5020433;28;20223;-76
2022/01/14 07:58:20;;;;;;;3.53;3.33;;;18.60;38.80;;;;;;5022364;28;20228;-74
2022/01/14 08:00:46;;;;;;;3.77;3.47;;;18.60;38.70;;;;;;5024016;28;20827;-76
2022/01/14 08:03:12;;;;;;;4.23;3.83;;;18.60;39.60;;;;;;5020389;28;20431;-77
2022/01/14 08:05:37;;;;;;;3.97;3.67;;;18.60;38.80;;;;;;5026042;28;20747;-74
2022/01/14 08:08:05;;;;;;;4.10;3.67;;;18.60;38.80;;;;;;5023954;28;20555;-76
2022/01/14 08:10:32;;;;;;;3.20;3.00;;;18.60;38.80;;;;;;5021263;28;20579;-76
2022/01/14 08:12:58;;;;;;;3.50;3.30;;;18.60;38.80;;;;;;5020278;28;20461;-76
2022/01/14 08:15:24;;;;;;;4.10;3.80;;;18.60;38.80;;;;;;5022654;28;20415;-74
2022/01/14 08:17:49;;;;;;;3.63;3.33;;;18.60;38.80;;;;;;5021979;28;20975;-78
2022/01/14 08:20:15;;;;;;;4.30;3.90;;;18.60;38.90;;;;;;5025604;28;20659;-75
2022/01/14 08:22:41;;;;;;;3.43;3.23;;;18.60;38.80;;;;;;5021683;28;20215;-77
2022/01/14 08:25:09;;;;;;;3.13;2.93;;;18.60;38.80;;;;;;5019244;28;20928;-78
2022/01/14 08:27:34;;;;;;;4.00;3.70;;;18.60;38.80;;;;;;5019354;28;20269;-77
2022/01/14 08:30:00;;;;;;;3.90;3.70;;;18.60;38.80;;;;;;5020792;28;20847;-77
2022/01/14 08:32:26;;;;;;;3.40;3.20;;;18.50;38.70;;;;;;5019130;28;20227;-78
2022/01/14 08:34:51;;;;;;;3.23;3.03;;;18.60;38.90;;;;;;5016577;28;20235;-76
2022/01/14 08:37:17;;;;;;;3.03;2.73;;;18.50;38.70;;;;;;5021936;28;20222;-78
2022/01/14 08:39:43;;;;;;;4.30;3.30;;;18.60;38.80;;;;;;5019247;28;20302;-78
2022/01/14 08:42:10;;;;;;;3.40;3.10;;;18.60;38.90;;;;;;5015884;28;20218;-77
2022/01/14 08:44:38;;;;;;;3.37;3.17;;;18.50;38.80;;;;;;5023326;28;20299;-78
2022/01/14 08:47:09;;;;;;;3.97;3.67;;;18.50;38.80;;;;;;5016968;28;20453;-85
2022/01/14 08:49:43;;;;;;;3.33;3.13;;;18.60;38.90;;;;;;5020879;28;20828;-80
2022/01/14 08:52:11;;;;;;;3.57;3.37;;;18.60;38.90;;;;;;5021982;28;20854;-79
2022/01/14 08:54:37;;;;;;;3.20;3.00;;;18.50;38.80;;;;;;5019923;28;20420;-78
2022/01/14 08:57:04;;;;;;;3.40;3.20;;;18.50;38.80;;;;;;5018522;28;20939;-78
2022/01/14 08:59:31;;;;;;;3.40;3.20;;;18.60;38.90;;;;;;5012005;28;20427;-65
2022/01/14 09:01:57;;;;;;;3.23;3.03;;;18.50;38.80;;;;;;5015399;28;20430;-65
2022/01/14 09:04:23;;;;;;;3.80;3.60;;;18.60;38.90;;;;;;5024263;28;20929;-65
2022/01/14 09:06:49;;;;;;;3.23;3.03;;;18.50;38.80;;;;;;5019841;28;20424;-65
2022/01/14 09:09:15;;;;;;;3.43;3.23;;;18.50;38.80;;;;;;5024682;28;20638;-65
2022/01/14 09:11:42;;;;;;;3.80;3.50;;;18.50;38.80;;;;;;5014103;28;20306;-65
2022/01/14 09:14:08;;;;;;;3.63;3.33;;;18.60;38.90;;;;;;5018567;28;20227;-64
2022/01/14 09:16:34;;;;;;;3.53;3.33;;;18.60;38.90;;;;;;5018390;28;20456;-64
2022/01/14 09:19:00;;;;;;;3.20;3.00;;;18.60;39.70;;;;;;5015820;28;20420;-64
2022/01/14 09:21:25;;;;;;;3.80;3.60;;;18.60;38.90;;;;;;5020376;28;20223;-65
2022/01/14 09:24:03;;;;;;;3.70;3.50;;;18.60;38.80;;;;;;5017282;28;20218;-66
2022/01/14 09:26:30;;;;;;;3.40;3.20;;;18.60;38.90;;;;;;5024270;28;20222;-66
2022/01/14 09:28:55;;;;;;;3.13;2.93;;;18.60;38.80;;;;;;5020663;28;20476;-65
2022/01/14 09:31:21;;;;;;;3.50;3.30;;;18.60;38.80;;;;;;5020624;28;20900;-65
2022/01/14 09:33:46;;;;;;;3.50;3.30;;;18.60;38.80;;;;;;5020679;28;20697;-66
2022/01/14 09:36:13;;;;;;;3.60;3.40;;;18.70;38.90;;;;;;5017965;28;20254;-67
2022/01/14 09:38:39;;;;;;;3.30;3.10;;;18.60;38.80;;;;;;5017926;28;20839;-66
2022/01/14 09:41:07;;;;;;;4.13;3.83;;;18.60;38.80;;;;;;5018851;28;20212;-67
2022/01/14 09:43:36;;;;;;;3.50;3.30;;;18.70;38.80;;;;;;5020031;28;20306;-67
2022/01/14 09:46:05;;;;;;;3.70;3.50;;;18.60;38.70;;;;;;5019187;28;20535;-67
2022/01/14 09:48:31;;;;;;;3.27;3.07;;;18.60;38.70;;;;;;5014633;28;20453;-66
2022/01/14 09:50:57;;;;;;;3.67;3.37;;;18.70;38.80;;;;;;5017119;28;20460;-66
2022/01/14 09:53:25;;;;;;;3.40;3.20;;;18.60;38.70;;;;;;5020165;28;20464;-66
2022/01/14 09:55:51;;;;;;;3.70;3.50;;;18.60;38.70;;;;;;5020217;28;20230;-66
2022/01/14 09:58:17;;;;;;;3.10;2.90;;;18.60;38.80;;;;;;5021327;28;20415;-66
2022/01/14 10:00:42;;;;;;;4.00;3.80;;;18.60;38.80;;;;;;5022520;28;20227;-66
2022/01/14 10:03:28;;;;;;;3.40;3.20;;;18.60;38.80;;;;;;5019074;28;20234;-66
2022/01/14 10:05:57;;;;;;;4.13;3.83;;;18.60;38.70;;;;;;5018317;28;20216;-65
2022/01/14 10:08:26;;;;;;;3.50;3.30;;;18.60;38.80;;;;;;5021577;28;20448;-66
2022/01/14 10:11:01;;;;;;;3.30;3.10;;;18.60;38.80;;;;;;5017965;28;20540;-66
2022/01/14 10:13:30;;;;;;;3.50;3.20;;;18.60;38.80;;;;;;5018778;28;20460;-66
2022/01/14 10:16:03;;;;;;;3.80;3.50;;;18.60;38.90;;;;;;5019134;28;20569;-67
2022/01/14 10:18:30;;;;;;;4.17;3.27;;;18.60;38.90;;;;;;5047357;28;20503;-67
2022/01/14 10:21:06;;;;;;;3.20;3.00;;;18.60;38.90;;;;;;5020745;28;20419;-73
2022/01/14 10:23:47;;;;;;;3.60;3.40;;;18.60;38.90;;;;;;5019417;28;20426;-73
2022/01/14 10:26:14;;;;;;;3.10;2.90;;;18.60;38.90;;;;;;5019305;28;20985;-76
2022/01/14 10:28:44;;;;;;;3.40;3.20;;;18.60;38.90;;;;;;5021912;28;20546;-73
2022/01/14 10:31:11;;;;;;;5.03;3.97;;;18.60;38.90;;;;;;5016275;28;20469;-72
2022/01/14 10:33:37;;;;;;;3.60;3.40;;;18.60;38.90;;;;;;5022472;28;20439;-73
2022/01/14 10:36:04;;;;;;;3.53;3.33;;;18.60;38.90;;;;;;5019704;28;20845;-72
2022/01/14 10:38:39;;;;;;;3.70;3.47;;;18.60;38.90;;;;;;5018796;28;20231;-73
2022/01/14 10:41:09;;;;;;;3.70;3.50;;;18.60;38.90;;;;;;5019195;28;20488;-72
2022/01/14 10:43:36;;;;;;;3.07;2.87;;;18.60;38.90;;;;;;5018619;28;20423;-73
2022/01/14 10:46:09;;;;;;;3.30;3.10;;;18.60;38.90;;;;;;5017604;28;20882;-73
2022/01/14 10:48:38;;;;;;;3.50;3.30;;;18.60;38.90;;;;;;5021351;28;20442;-73
2022/01/14 10:51:12;;;;;;;2.77;2.67;;;18.60;38.90;;;;;;5017482;28;20445;-72
2022/01/14 10:53:41;;;;;;;3.20;3.00;;;18.60;38.90;;;;;;5016850;28;20435;-73
2022/01/14 10:56:17;;;;;;;2.80;2.70;;;18.60;38.90;;;;;;5021589;28;20487;-73
2022/01/14 10:58:50;;;;;;;4.00;3.80;;;18.50;38.80;;;;;;5022214;28;20410;-73
2022/01/14 11:01:22;;;;;;;3.60;3.20;;;18.50;38.80;;;;;;5022879;28;20445;-72
2022/01/14 11:04:00;;;;;;;3.80;3.60;;;18.50;38.80;;;;;;5022719;28;20419;-73
2022/01/14 11:06:40;;;;;;;3.43;3.23;;;18.50;38.80;;;;;;5023066;28;20448;-73
2022/01/14 11:09:16;;;;;;;3.47;3.20;;;18.50;38.90;;;;;;5023504;28;20428;-73
2022/01/14 11:11:44;;;;;;;3.20;3.00;;;18.60;39.00;;;;;;5022145;28;20945;-73
2022/01/14 11:14:10;;;;;;;3.40;3.07;;;18.50;38.80;;;;;;5022160;28;20439;-72
2022/01/14 11:16:37;;;;;;;4.20;3.63;;;18.60;38.90;;;;;;5021980;28;20464;-73
2022/01/14 11:19:04;;;;;;;3.13;2.93;;;18.60;39.80;;;;;;5023850;28;20420;-73
2022/01/14 11:24:25;;;;;;;2.90;2.70;;;18.50;38.90;;;;;;5023853;28;20930;-73
2022/01/14 11:26:58;;;;;;;3.13;2.93;;;18.50;38.80;;;;;;5017679;28;20455;-72
2022/01/14 11:29:24;;;;;;;3.30;3.10;;;18.50;38.80;;;;;;5021627;28;20438;-73
2022/01/14 11:31:59;;;;;;;3.47;3.27;;;18.50;38.80;;;;;;5022793;28;20451;-73
2022/01/14 11:34:36;;;;;;;2.90;2.70;;;18.50;38.80;;;;;;5023832;28;20504;-74
2022/01/14 11:37:35;;;;;;;3.40;3.20;;;18.50;38.90;;;;;;5022151;28;20768;-74
2022/01/14 11:40:08;;;;;;;3.37;3.17;;;18.50;38.80;;;;;;5018502;28;20990;-74
2022/01/14 11:42:49;;;;;;;3.97;3.67;;;18.50;38.90;;;;;;5021933;28;20986;-74
2022/01/14 11:45:43;;;;;;;2.70;2.50;;;18.50;38.80;;;;;;5003033;28;20424;-74
2022/01/14 11:48:35;;;;;;;3.13;2.93;;;18.50;38.90;;;;;;5001051;28;20870;-74
2022/01/14 11:51:06;;;;;;;3.20;3.00;;;18.50;38.80;;;;;;5003949;28;20763;-73
2022/01/14 11:53:41;;;;;;;3.40;3.20;;;18.50;39.00;;;;;;4996104;28;20485;-74
2022/01/14 11:56:30;;;;;;;3.30;3.10;;;18.50;38.90;;;;;;5003231;28;20483;-74
2022/01/14 11:59:18;;;;;;;3.40;3.20;;;18.50;38.90;;;;;;5001201;28;20413;-74
2022/01/14 12:01:49;;;;;;;3.43;3.23;;;18.50;38.90;;;;;;5001648;28;20892;-74
2022/01/14 12:04:15;;;;;;;3.43;3.20;;;18.50;38.90;;;;;;5001778;28;20460;-74
2022/01/14 12:06:49;;;;;;;3.40;3.20;;;18.50;38.90;;;;;;5001939;28;20466;-75
2022/01/14 12:09:16;;;;;;;3.10;2.90;;;18.50;39.00;;;;;;5001370;28;20450;-74
2022/01/14 12:11:42;;;;;;;3.20;3.00;;;18.50;39.70;;;;;;5002486;28;20413;-73
2022/01/14 12:14:07;;;;;;;3.00;2.80;;;18.50;39.00;;;;;;5000979;28;20438;-74
2022/01/14 12:16:49;;;;;;;3.40;3.10;;;18.50;38.90;;;;;;5004246;28;20619;-75
2022/01/14 12:19:18;;;;;;;3.17;2.97;;;18.50;38.90;;;;;;5003278;28;20304;-75
2022/01/14 12:21:44;;;;;;;3.43;3.23;;;18.50;38.90;;;;;;5003056;28;20503;-75
2022/01/14 12:24:16;;;;;;;3.50;3.30;;;18.50;39.00;;;;;;5002911;28;20511;-74
2022/01/14 12:26:42;;;;;;;3.93;3.37;;;18.50;39.00;;;;;;5002098;28;20266;-73
2022/01/14 12:29:14;;;;;;;2.80;2.60;;;18.50;39.00;;;;;;5001283;28;20429;-73
2022/01/14 12:32:11;;;;;;;3.33;3.03;;;18.50;38.90;;;;;;4999853;28;20424;-75
2022/01/14 12:34:54;;;;;;;3.37;3.17;;;18.50;38.80;;;;;;4999596;28;20917;-77
2022/01/14 12:37:32;;;;;;;3.80;3.60;;;18.50;38.90;;;;;;5030297;28;20439;-76
2022/01/14 12:40:08;;;;;;;3.20;3.00;;;18.50;38.90;;;;;;5003573;28;20535;-76
2022/01/14 12:42:35;;;;;;;3.80;3.50;;;18.50;39.00;;;;;;5003683;28;20428;-77
2022/01/14 12:45:03;;;;;;;3.57;3.27;;;18.50;38.90;;;;;;4998553;28;20425;-77
2022/01/14 12:47:33;;;;;;;3.33;3.13;;;18.50;38.80;;;;;;4999173;28;20930;-76
2022/01/14 12:50:09;;;;;;;3.37;3.17;;;18.50;39.70;;;;;;5001227;28;20424;-76
2022/01/14 12:52:46;;;;;;;3.00;2.80;;;18.50;38.90;;;;;;4999449;28;20470;-75
2022/01/14 12:55:12;;;;;;;4.30;4.00;;;18.50;38.80;;;;;;5003595;28;20453;-78
2022/01/14 12:57:37;;;;;;;3.10;2.90;;;18.50;38.90;;;;;;5016435;28;20814;-76
2022/01/14 13:00:06;;;;;;;4.13;3.93;;;18.50;38.90;;;;;;5000505;28;20220;-75
2022/01/14 13:02:32;;;;;;;3.63;3.43;;;18.50;38.80;;;;;;5006634;28;20269;-75
2022/01/14 13:05:21;;;;;;;3.27;2.83;;;18.50;38.90;;;;;;4998010;28;20416;-75
2022/01/14 13:07:48;;;;;;;3.57;3.37;;;18.50;38.90;;;;;;5002315;28;20612;-75
2022/01/14 13:10:15;;;;;;;3.40;3.20;;;18.50;38.90;;;;;;5002867;28;20492;-75
2022/01/14 13:12:44;;;;;;;3.67;3.47;;;18.50;38.80;;;;;;5007445;28;20463;-74
2022/01/14 13:15:20;;;;;;;3.77;3.50;;;18.50;38.80;;;;;;4997576;28;20435;-75
2022/01/14 13:18:02;;;;;;;3.30;3.10;;;18.50;39.00;;;;;;5000191;28;20450;-75
2022/01/14 13:20:30;;;;;;;3.80;3.50;;;18.50;38.90;;;;;;5000187;28;20437;-75
2022/01/14 13:22:56;;;;;;;3.37;3.17;;;18.50;39.70;;;;;;4998354;28;20446;-75